createdAt,value
2019-03-08T00:00:59.839Z,3.02
2019-03-08T00:02:04.158Z,3.65
2019-03-08T00:03:08.476Z,4.05
2019-03-08T00:04:12.625Z,4.25
2019-03-08T00:05:17.017Z,3.65
2019-03-08T00:06:21.235Z,4.42
2019-03-08T00:07:25.831Z,3.75
2019-03-08T00:08:30.476Z,3.30
2019-03-08T00:09:34.827Z,3.60
2019-03-08T00:10:39.159Z,3.70
2019-03-08T00:11:43.419Z,3.50
2019-03-08T00:12:47.669Z,4.00
2019-03-08T00:13:51.842Z,3.35
2019-03-08T00:14:56.158Z,3.90
2019-03-08T00:16:00.295Z,4.15
2019-03-08T00:17:04.505Z,3.75
2019-03-08T00:18:08.663Z,3.65
2019-03-08T00:19:12.828Z,4.10
2019-03-08T00:20:16.960Z,3.12
2019-03-08T00:21:21.316Z,3.80
2019-03-08T00:22:25.738Z,3.60
2019-03-08T00:23:29.963Z,3.00
2019-03-08T00:24:34.147Z,3.08
2019-03-08T00:25:38.717Z,3.92
2019-03-08T00:26:42.934Z,3.22
2019-03-08T00:27:47.155Z,3.02
2019-03-08T00:28:51.313Z,3.83
2019-03-08T00:29:55.535Z,3.65
2019-03-08T00:30:59.823Z,4.15
2019-03-08T00:32:04.401Z,3.33
2019-03-08T00:33:08.717Z,3.95
2019-03-08T00:34:12.847Z,3.90
2019-03-08T00:35:17.156Z,3.70
2019-03-08T00:36:21.310Z,4.00
2019-03-08T00:37:25.673Z,3.60
2019-03-08T00:38:29.843Z,4.03
2019-03-08T00:39:34.095Z,4.33
2019-03-08T00:40:38.265Z,3.27
2019-03-08T00:41:42.453Z,3.30
2019-03-08T00:42:47.084Z,3.80
2019-03-08T00:43:51.214Z,3.80
2019-03-08T00:44:55.427Z,3.83
2019-03-08T00:45:59.691Z,2.90
2019-03-08T00:47:03.945Z,3.25
2019-03-08T00:48:08.232Z,3.02
2019-03-08T00:49:12.499Z,3.50
2019-03-08T00:50:16.751Z,4.00
2019-03-08T00:51:20.964Z,3.65
2019-03-08T00:52:25.252Z,3.27
2019-03-08T00:53:29.537Z,3.37
2019-03-08T00:54:33.853Z,3.67
2019-03-08T00:55:38.148Z,2.50
2019-03-08T00:56:42.407Z,3.30
2019-03-08T00:57:46.777Z,3.40
2019-03-08T00:58:51.094Z,3.60
2019-03-08T00:59:56.065Z,2.80
2019-03-08T01:01:00.413Z,3.10
2019-03-08T01:02:04.985Z,3.15
2019-03-08T01:03:09.300Z,2.90
2019-03-08T01:04:13.433Z,3.12
2019-03-08T01:05:18.482Z,2.85
2019-03-08T01:06:22.806Z,3.52
2019-03-08T01:07:27.160Z,2.70
2019-03-08T01:08:31.393Z,2.55
2019-03-08T01:09:35.855Z,2.80
2019-03-08T01:10:40.194Z,2.72
2019-03-08T01:11:45.347Z,2.95
2019-03-08T01:12:49.679Z,2.50
2019-03-08T01:13:53.888Z,2.65
2019-03-08T01:14:58.085Z,3.02
2019-03-08T01:16:02.265Z,2.45
2019-03-08T01:17:06.664Z,2.22
2019-03-08T01:18:11.213Z,2.83
2019-03-08T01:19:15.356Z,2.60
2019-03-08T01:20:20.269Z,2.33
2019-03-08T01:21:24.880Z,2.70
2019-03-08T01:22:29.264Z,2.60
2019-03-08T01:23:33.545Z,2.35
2019-03-08T01:24:37.840Z,2.75
2019-03-08T01:25:42.032Z,2.65
2019-03-08T01:26:46.405Z,2.67
2019-03-08T01:28:05.169Z,2.20
2019-03-08T01:29:09.648Z,2.08
2019-03-08T01:30:13.847Z,2.50
2019-03-08T01:31:18.053Z,2.47
2019-03-08T01:32:22.321Z,3.05
2019-03-08T01:33:26.657Z,2.75
2019-03-08T01:34:30.967Z,2.72
2019-03-08T01:35:35.149Z,2.80
2019-03-08T01:36:39.515Z,2.90
2019-03-08T01:37:43.814Z,2.70
2019-03-08T01:38:48.444Z,2.87
2019-03-08T01:39:53.135Z,2.42
2019-03-08T01:40:57.407Z,2.80
2019-03-08T01:42:01.693Z,2.77
2019-03-08T01:43:06.722Z,3.05
2019-03-08T01:44:11.103Z,2.50
2019-03-08T01:45:15.486Z,2.30
2019-03-08T01:46:19.671Z,2.40
2019-03-08T01:47:23.953Z,3.17
2019-03-08T01:48:28.257Z,2.60
2019-03-08T01:49:32.523Z,2.33
2019-03-08T01:50:36.793Z,2.58
2019-03-08T01:51:40.985Z,2.80
2019-03-08T01:52:45.499Z,2.72
2019-03-08T01:53:49.734Z,2.55
2019-03-08T01:54:53.979Z,3.00
2019-03-08T01:55:58.343Z,2.60
2019-03-08T01:57:02.781Z,2.70
2019-03-08T01:58:07.067Z,2.60
2019-03-08T01:59:11.287Z,2.30
2019-03-08T02:00:17.402Z,2.00
2019-03-08T02:01:21.603Z,2.80
2019-03-08T02:02:25.895Z,2.40
2019-03-08T02:03:30.212Z,2.70
2019-03-08T02:04:34.503Z,2.47
2019-03-08T02:05:38.843Z,2.52
2019-03-08T02:06:43.065Z,2.70
2019-03-08T02:07:47.252Z,2.50
2019-03-08T02:08:51.536Z,2.55
2019-03-08T02:09:55.653Z,2.47
2019-03-08T02:11:00.016Z,2.70
2019-03-08T02:12:04.873Z,2.22
2019-03-08T02:13:09.099Z,2.55
2019-03-08T02:14:13.501Z,3.05
2019-03-08T02:15:18.881Z,2.40
2019-03-08T02:16:23.099Z,2.60
2019-03-08T02:17:27.395Z,2.70
2019-03-08T02:18:31.652Z,2.15
2019-03-08T02:19:35.961Z,2.77
2019-03-08T02:20:40.218Z,2.40
2019-03-08T02:21:44.574Z,2.30
2019-03-08T02:22:48.941Z,2.42
2019-03-08T02:23:53.135Z,2.40
2019-03-08T02:24:57.325Z,2.55
2019-03-08T02:26:01.573Z,2.40
2019-03-08T02:27:05.933Z,2.50
2019-03-08T02:28:10.097Z,2.10
2019-03-08T02:29:14.398Z,2.52
2019-03-08T02:30:18.964Z,2.37
2019-03-08T02:31:23.370Z,2.52
2019-03-08T02:32:27.918Z,1.85
2019-03-08T02:33:32.343Z,1.80
2019-03-08T02:34:36.590Z,2.70
2019-03-08T02:35:40.936Z,2.30
2019-03-08T02:36:45.099Z,2.45
2019-03-08T02:37:49.303Z,2.25
2019-03-08T02:38:53.487Z,2.42
2019-03-08T02:39:57.833Z,2.40
2019-03-08T02:41:02.284Z,1.80
2019-03-08T02:42:06.898Z,2.75
2019-03-08T02:43:13.261Z,2.35
2019-03-08T02:44:17.667Z,1.82
2019-03-08T02:45:22.024Z,2.20
2019-03-08T02:46:26.177Z,2.00
2019-03-08T02:47:30.303Z,2.10
2019-03-08T02:48:34.542Z,1.60
2019-03-08T02:49:38.895Z,1.70
2019-03-08T02:50:43.817Z,2.00
2019-03-08T02:51:48.060Z,1.85
2019-03-08T02:52:52.429Z,1.52
2019-03-08T02:53:56.782Z,1.70
2019-03-08T02:55:01.027Z,1.70
2019-03-08T02:56:05.152Z,1.90
2019-03-08T02:57:09.370Z,1.90
2019-03-08T02:58:13.553Z,1.82
2019-03-08T02:59:17.871Z,1.70
2019-03-08T03:00:22.083Z,1.70
2019-03-08T03:01:26.255Z,2.20
2019-03-08T03:02:30.889Z,1.55
2019-03-08T03:03:35.159Z,1.60
2019-03-08T03:04:39.528Z,1.92
2019-03-08T03:05:43.657Z,2.10
2019-03-08T03:06:48.070Z,1.87
2019-03-08T03:07:52.455Z,1.80
2019-03-08T03:08:57.033Z,1.92
2019-03-08T03:10:01.272Z,1.57
2019-03-08T03:11:05.683Z,1.90
2019-03-08T03:12:09.941Z,1.92
2019-03-08T03:13:14.280Z,1.90
2019-03-08T03:14:18.530Z,2.00
2019-03-08T03:15:22.757Z,1.60
2019-03-08T03:16:27.048Z,1.72
2019-03-08T03:17:31.211Z,1.80
2019-03-08T03:18:35.533Z,1.45
2019-03-08T03:19:39.736Z,1.57
2019-03-08T03:20:44.037Z,2.05
2019-03-08T03:21:48.214Z,1.62
2019-03-08T03:22:52.610Z,2.35
2019-03-08T03:23:57.121Z,2.30
2019-03-08T03:25:01.332Z,2.00
2019-03-08T03:26:05.811Z,1.90
2019-03-08T03:27:10.187Z,1.70
2019-03-08T03:28:14.548Z,1.90
2019-03-08T03:29:18.841Z,1.40
2019-03-08T03:30:23.176Z,1.57
2019-03-08T03:31:27.409Z,2.15
2019-03-08T03:32:31.737Z,2.08
2019-03-08T03:33:35.972Z,2.25
2019-03-08T03:34:40.403Z,1.60
2019-03-08T03:35:44.716Z,1.60
2019-03-08T03:36:49.139Z,1.45
2019-03-08T03:37:53.519Z,1.70
2019-03-08T03:38:57.961Z,1.45
2019-03-08T03:40:02.389Z,1.40
2019-03-08T03:41:06.791Z,1.70
2019-03-08T03:42:11.228Z,1.50
2019-03-08T03:43:15.859Z,1.90
2019-03-08T03:44:20.574Z,1.32
2019-03-08T03:45:24.840Z,1.70
2019-03-08T03:46:29.071Z,1.77
2019-03-08T03:47:33.359Z,1.47
2019-03-08T03:48:37.563Z,1.30
2019-03-08T03:49:41.897Z,1.87
2019-03-08T03:50:46.095Z,1.57
2019-03-08T03:51:50.338Z,1.67
2019-03-08T03:52:54.556Z,1.95
2019-03-08T03:53:58.839Z,1.70
2019-03-08T03:55:03.251Z,1.30
2019-03-08T03:56:07.565Z,1.50
2019-03-08T03:57:11.841Z,1.42
2019-03-08T03:58:15.983Z,1.75
2019-03-08T03:59:20.268Z,1.92
2019-03-08T04:00:25.223Z,1.52
2019-03-08T04:01:39.886Z,1.25
2019-03-08T04:02:44.183Z,1.10
2019-03-08T04:03:48.819Z,1.72
2019-03-08T04:04:53.091Z,1.30
2019-03-08T04:05:57.420Z,1.57
2019-03-08T04:07:01.725Z,1.10
2019-03-08T04:08:06.051Z,1.27
2019-03-08T04:09:13.451Z,1.40
2019-03-08T04:10:18.299Z,1.40
2019-03-08T04:11:22.439Z,1.20
2019-03-08T04:12:26.739Z,1.40
2019-03-08T04:13:31.052Z,1.62
2019-03-08T04:14:35.237Z,0.90
2019-03-08T04:15:39.390Z,1.60
2019-03-08T04:16:43.544Z,1.45
2019-03-08T04:17:47.798Z,1.25
2019-03-08T04:18:51.951Z,1.50
2019-03-08T04:19:56.111Z,1.37
2019-03-08T04:21:00.452Z,1.30
2019-03-08T04:22:05.307Z,1.02
2019-03-08T04:23:09.570Z,1.20
2019-03-08T04:24:13.833Z,1.30
2019-03-08T04:25:18.029Z,1.22
2019-03-08T04:26:22.403Z,1.52
2019-03-08T04:27:26.570Z,1.00
2019-03-08T04:28:30.760Z,1.12
2019-03-08T04:29:35.140Z,1.07
2019-03-08T04:30:39.510Z,1.30
2019-03-08T04:31:43.792Z,1.25
2019-03-08T04:32:47.956Z,1.10
2019-03-08T04:33:52.210Z,0.72
2019-03-08T04:34:56.523Z,0.98
2019-03-08T04:36:00.837Z,1.07
2019-03-08T04:37:05.215Z,0.90
2019-03-08T04:38:09.785Z,1.00
2019-03-08T04:39:14.272Z,1.37
2019-03-08T04:40:18.781Z,0.98
2019-03-08T04:41:22.996Z,1.17
2019-03-08T04:42:27.343Z,1.17
2019-03-08T04:43:31.749Z,1.20
2019-03-08T04:44:36.181Z,1.40
2019-03-08T04:45:40.519Z,1.37
2019-03-08T04:46:44.703Z,1.00
2019-03-08T04:47:49.396Z,1.17
2019-03-08T04:48:53.709Z,1.22
2019-03-08T04:49:58.216Z,1.10
2019-03-08T04:51:02.474Z,1.17
2019-03-08T04:52:06.665Z,1.20
2019-03-08T04:53:10.865Z,0.80
2019-03-08T04:54:15.192Z,1.30
2019-03-08T04:55:19.403Z,1.20
2019-03-08T04:56:23.876Z,1.42
2019-03-08T04:57:28.058Z,1.07
2019-03-08T04:58:32.347Z,1.15
2019-03-08T04:59:36.704Z,1.10
2019-03-08T05:00:41.013Z,0.93
2019-03-08T05:01:45.333Z,1.00
2019-03-08T05:02:49.518Z,1.40
2019-03-08T05:03:53.861Z,1.22
2019-03-08T05:04:58.017Z,1.65
2019-03-08T05:06:02.241Z,1.35
2019-03-08T05:07:06.474Z,1.47
2019-03-08T05:08:10.709Z,1.35
2019-03-08T05:09:15.003Z,1.12
2019-03-08T05:10:19.453Z,1.50
2019-03-08T05:11:23.732Z,1.50
2019-03-08T05:12:28.066Z,1.20
2019-03-08T05:13:32.671Z,1.45
2019-03-08T05:14:36.973Z,1.12
2019-03-08T05:15:41.236Z,1.05
2019-03-08T05:16:45.563Z,1.12
2019-03-08T05:17:49.719Z,1.70
2019-03-08T05:18:53.866Z,1.20
2019-03-08T05:19:58.083Z,1.15
2019-03-08T05:21:02.274Z,1.17
2019-03-08T05:22:06.481Z,1.72
2019-03-08T05:23:10.646Z,1.55
2019-03-08T05:24:15.012Z,1.65
2019-03-08T05:25:19.238Z,1.87
2019-03-08T05:26:23.372Z,1.22
2019-03-08T05:27:27.704Z,1.02
2019-03-08T05:28:31.918Z,1.47
2019-03-08T05:29:36.686Z,0.93
2019-03-08T05:30:41.372Z,1.40
2019-03-08T05:31:45.661Z,1.62
2019-03-08T05:32:49.978Z,1.35
2019-03-08T05:33:54.247Z,1.10
2019-03-08T05:34:58.519Z,1.15
2019-03-08T05:36:02.764Z,1.25
2019-03-08T05:37:07.105Z,1.02
2019-03-08T05:38:11.452Z,1.00
2019-03-08T05:39:15.737Z,1.22
2019-03-08T05:40:19.935Z,1.40
2019-03-08T05:41:24.160Z,1.02
2019-03-08T05:42:28.494Z,1.05
2019-03-08T05:43:32.779Z,1.00
2019-03-08T05:44:37.056Z,0.72
2019-03-08T05:45:41.257Z,1.10
2019-03-08T05:46:45.701Z,1.00
2019-03-08T05:47:50.273Z,0.80
2019-03-08T05:48:54.483Z,1.57
2019-03-08T05:49:58.672Z,1.00
2019-03-08T05:51:02.937Z,1.15
2019-03-08T05:52:07.239Z,1.10
2019-03-08T05:53:11.773Z,1.00
2019-03-08T05:54:15.909Z,1.12
2019-03-08T05:55:20.298Z,1.35
2019-03-08T05:56:24.676Z,1.00
2019-03-08T05:57:28.996Z,1.00
2019-03-08T05:58:33.375Z,1.15
2019-03-08T05:59:37.540Z,1.37
2019-03-08T06:00:41.836Z,1.20
2019-03-08T06:01:46.228Z,1.15
2019-03-08T06:02:50.832Z,0.88
2019-03-08T06:03:55.315Z,1.35
2019-03-08T06:04:59.552Z,0.82
2019-03-08T06:06:03.769Z,0.90
2019-03-08T06:07:08.116Z,0.90
2019-03-08T06:08:12.375Z,0.80
2019-03-08T06:09:16.560Z,1.30
2019-03-08T06:10:31.689Z,0.90
2019-03-08T06:11:36.034Z,0.90
2019-03-08T06:12:40.415Z,0.85
2019-03-08T06:13:44.691Z,0.70
2019-03-08T06:14:49.078Z,0.80
2019-03-08T06:15:53.361Z,1.10
2019-03-08T06:16:57.599Z,1.12
2019-03-08T06:18:02.031Z,0.90
2019-03-08T06:19:06.247Z,1.00
2019-03-08T06:20:10.433Z,1.20
2019-03-08T06:21:14.831Z,1.25
2019-03-08T06:22:19.233Z,0.90
2019-03-08T06:23:23.656Z,0.80
2019-03-08T06:24:27.823Z,0.85
2019-03-08T06:25:32.289Z,1.57
2019-03-08T06:26:36.605Z,1.10
2019-03-08T06:27:41.359Z,1.07
2019-03-08T06:28:45.692Z,2.05
2019-03-08T06:29:49.878Z,1.35
2019-03-08T06:30:54.158Z,1.32
2019-03-08T06:31:58.412Z,1.70
2019-03-08T06:33:02.785Z,1.25
2019-03-08T06:34:07.101Z,1.35
2019-03-08T06:35:11.336Z,1.07
2019-03-08T06:36:15.492Z,1.20
2019-03-08T06:37:19.816Z,1.07
2019-03-08T06:38:24.176Z,0.95
2019-03-08T06:39:28.465Z,0.70
2019-03-08T06:40:32.666Z,1.07
2019-03-08T06:41:36.933Z,0.90
2019-03-08T06:42:41.251Z,1.10
2019-03-08T06:43:45.440Z,1.05
2019-03-08T06:44:49.696Z,0.80
2019-03-08T06:45:53.941Z,1.40
2019-03-08T06:46:58.229Z,1.00
2019-03-08T06:48:02.437Z,1.10
2019-03-08T06:49:06.697Z,0.88
2019-03-08T06:50:11.665Z,1.42
2019-03-08T06:51:15.959Z,1.50
2019-03-08T06:52:20.152Z,0.95
2019-03-08T06:53:24.360Z,1.25
2019-03-08T06:54:28.660Z,1.05
2019-03-08T06:55:33.123Z,1.07
2019-03-08T06:56:37.685Z,1.05
2019-03-08T06:57:42.077Z,0.88
2019-03-08T06:58:51.288Z,1.10
2019-03-08T07:00:16.719Z,0.82
2019-03-08T07:01:27.157Z,1.30
2019-03-08T07:02:31.447Z,0.90
2019-03-08T07:03:35.982Z,0.85
2019-03-08T07:04:40.643Z,1.10
2019-03-08T07:05:44.867Z,1.42
2019-03-08T07:06:49.027Z,1.00
2019-03-08T07:07:53.305Z,0.98
2019-03-08T07:08:57.528Z,1.15
2019-03-08T07:10:01.862Z,0.80
2019-03-08T07:11:06.096Z,1.40
2019-03-08T07:12:10.336Z,0.98
2019-03-08T07:13:14.717Z,1.00
2019-03-08T07:14:19.092Z,0.98
2019-03-08T07:15:23.360Z,1.00
2019-03-08T07:16:27.589Z,1.20
2019-03-08T07:17:31.724Z,1.30
2019-03-08T07:18:35.985Z,0.90
2019-03-08T07:19:50.993Z,1.45
2019-03-08T07:21:10.395Z,0.93
2019-03-08T07:22:33.943Z,0.90
2019-03-08T07:23:46.045Z,1.15
2019-03-08T07:25:06.538Z,0.90
2019-03-08T07:26:27.009Z,0.90
2019-03-08T07:27:56.361Z,0.90
2019-03-08T07:29:22.531Z,0.90
2019-03-08T07:31:00.942Z,1.10
2019-03-08T07:32:21.175Z,1.47
2019-03-08T07:33:34.234Z,0.85
2019-03-08T07:35:00.644Z,1.00
2019-03-08T07:36:14.188Z,0.80
2019-03-08T07:37:37.392Z,1.02
2019-03-08T07:38:59.545Z,1.15
2019-03-08T07:40:15.850Z,1.05
2019-03-08T07:41:38.293Z,1.00
2019-03-08T07:42:54.176Z,1.12
2019-03-08T07:44:26.774Z,0.93
2019-03-08T07:45:52.896Z,0.80
2019-03-08T07:47:06.710Z,1.15
2019-03-08T07:48:29.570Z,0.90
2019-03-08T07:49:51.664Z,0.90
2019-03-08T07:51:30.141Z,0.72
2019-03-08T07:53:01.602Z,0.80
2019-03-08T07:54:12.056Z,1.20
2019-03-08T07:55:41.398Z,1.00
2019-03-08T07:57:03.599Z,0.60
2019-03-08T07:58:13.493Z,0.82
2019-03-08T07:59:35.641Z,0.68
2019-03-08T08:01:02.048Z,0.80
2019-03-08T08:02:17.031Z,0.93
2019-03-08T08:03:39.234Z,0.82
2019-03-08T08:04:52.864Z,0.98
2019-03-08T08:06:03.475Z,0.80
2019-03-08T08:07:22.531Z,0.70
2019-03-08T08:08:36.203Z,0.70
2019-03-08T08:09:58.428Z,0.62
2019-03-08T08:11:10.841Z,0.80
2019-03-08T08:12:34.105Z,0.90
2019-03-08T08:13:51.210Z,0.80
2019-03-08T08:15:01.139Z,0.72
2019-03-08T08:16:11.793Z,0.60
2019-03-08T08:17:34.855Z,0.88
2019-03-08T08:19:01.773Z,0.65
2019-03-08T08:20:22.071Z,0.60
2019-03-08T08:21:48.672Z,0.80
2019-03-08T08:23:21.192Z,0.60
2019-03-08T08:24:29.974Z,0.60
2019-03-08T08:25:52.201Z,0.70
2019-03-08T08:27:14.686Z,0.50
2019-03-08T08:28:49.487Z,0.55
2019-03-08T08:30:06.010Z,0.55
2019-03-08T08:31:20.510Z,0.53
2019-03-08T08:32:42.519Z,0.70
2019-03-08T08:34:06.457Z,0.70
2019-03-08T08:35:37.103Z,0.60
2019-03-08T08:37:15.682Z,0.60
2019-03-08T08:40:33.994Z,0.78
2019-03-08T08:41:57.166Z,0.70
2019-03-08T08:43:15.098Z,0.60
2019-03-08T08:44:36.812Z,0.62
2019-03-08T08:46:00.058Z,1.15
2019-03-08T08:47:35.693Z,0.68
2019-03-08T08:48:59.369Z,0.68
2019-03-08T08:50:22.372Z,0.75
2019-03-08T08:51:45.595Z,0.62
2019-03-08T08:53:11.833Z,0.50
2019-03-08T08:54:35.601Z,0.70
2019-03-08T08:55:46.281Z,0.53
2019-03-08T08:57:05.303Z,1.00
2019-03-08T08:58:20.055Z,0.55
2019-03-08T08:59:31.232Z,0.70
2019-03-08T09:00:41.723Z,0.60
2019-03-08T09:02:10.463Z,0.57
2019-03-08T09:03:38.214Z,0.50
2019-03-08T09:05:01.432Z,0.50
2019-03-08T09:06:13.950Z,0.50
2019-03-08T09:07:24.639Z,0.55
2019-03-08T09:08:47.827Z,0.50
2019-03-08T09:10:14.359Z,0.40
2019-03-08T09:11:43.706Z,0.57
2019-03-08T09:13:02.581Z,0.90
2019-03-08T09:14:11.465Z,0.80
2019-03-08T09:15:23.050Z,0.50
2019-03-08T09:16:46.340Z,0.60
2019-03-08T09:18:15.911Z,0.60
2019-03-08T09:19:40.071Z,0.60
2019-03-08T09:21:06.333Z,0.60
2019-03-08T09:22:18.592Z,0.40
2019-03-08T09:23:28.907Z,0.47
2019-03-08T09:24:47.479Z,0.70
2019-03-08T09:26:02.015Z,0.40
2019-03-08T09:27:25.229Z,0.70
2019-03-08T09:28:46.694Z,0.47
2019-03-08T09:30:08.929Z,0.40
2019-03-08T09:31:32.147Z,0.60
2019-03-08T09:33:04.532Z,0.50
2019-03-08T09:34:26.704Z,0.55
2019-03-08T09:35:38.665Z,0.45
2019-03-08T09:36:54.175Z,0.60
2019-03-08T09:38:23.788Z,0.40
2019-03-08T09:39:45.698Z,0.55
2019-03-08T09:41:08.862Z,0.60
2019-03-08T09:42:31.095Z,0.53
2019-03-08T09:43:57.141Z,0.45
2019-03-08T09:45:20.376Z,0.60
2019-03-08T09:46:46.599Z,0.50
2019-03-08T09:48:09.836Z,0.50
2019-03-08T09:49:28.531Z,0.40
2019-03-08T09:50:57.894Z,0.50
2019-03-08T09:52:21.142Z,0.57
2019-03-08T09:53:43.214Z,0.60
2019-03-08T09:55:05.222Z,0.50
2019-03-08T09:56:15.199Z,0.60
2019-03-08T09:57:41.763Z,0.60
2019-03-08T09:59:03.534Z,0.55
2019-03-08T10:00:32.880Z,0.60
2019-03-08T10:01:49.467Z,0.40
2019-03-08T10:03:12.759Z,0.70
2019-03-08T10:04:35.559Z,0.50
2019-03-08T10:05:57.700Z,0.40
2019-03-08T10:07:19.308Z,0.50
2019-03-08T10:08:31.299Z,0.60
2019-03-08T10:09:54.559Z,0.80
2019-03-08T10:11:08.294Z,0.50
2019-03-08T10:12:30.553Z,0.70
2019-03-08T10:13:52.417Z,0.47
2019-03-08T10:15:25.007Z,0.78
2019-03-08T10:16:34.599Z,0.50
2019-03-08T10:17:48.901Z,0.65
2019-03-08T10:19:11.191Z,0.60
2019-03-08T10:20:28.569Z,0.40
2019-03-08T10:21:39.361Z,0.70
2019-03-08T10:23:01.197Z,0.60
2019-03-08T10:24:30.692Z,0.62
2019-03-08T10:25:48.280Z,0.40
2019-03-08T10:27:11.514Z,0.53
2019-03-08T10:28:26.310Z,0.60
2019-03-08T10:29:36.437Z,0.60
2019-03-08T10:30:56.215Z,0.65
2019-03-08T10:32:09.938Z,0.70
2019-03-08T10:33:30.137Z,0.55
2019-03-08T10:34:52.058Z,0.50
2019-03-08T10:36:25.235Z,0.60
2019-03-08T10:37:54.251Z,0.68
2019-03-08T10:39:26.377Z,0.40
2019-03-08T10:40:51.394Z,0.60
2019-03-08T10:42:11.253Z,0.70
2019-03-08T10:43:28.755Z,0.60
2019-03-08T10:45:01.117Z,0.70
2019-03-08T10:46:24.499Z,0.55
2019-03-08T10:47:57.023Z,0.60
2019-03-08T10:49:18.881Z,0.68
2019-03-08T10:50:32.616Z,0.50
2019-03-08T10:51:54.449Z,0.70
2019-03-08T10:53:14.179Z,0.50
2019-03-08T10:54:44.013Z,0.42
2019-03-08T10:55:59.183Z,0.50
2019-03-08T10:57:21.000Z,0.60
2019-03-08T10:58:42.317Z,0.60
2019-03-08T11:00:14.899Z,0.70
2019-03-08T11:01:34.751Z,0.60
2019-03-08T11:02:49.461Z,0.70
2019-03-08T11:04:08.321Z,0.50
2019-03-08T11:05:18.875Z,0.50
2019-03-08T11:06:34.669Z,0.70
2019-03-08T11:07:45.195Z,0.50
2019-03-08T11:09:14.631Z,0.60
2019-03-08T11:10:35.101Z,0.50
2019-03-08T11:11:53.928Z,0.50
2019-03-08T11:13:17.100Z,0.57
2019-03-08T11:14:31.101Z,0.50
2019-03-08T11:15:43.999Z,0.60
2019-03-08T11:17:07.207Z,0.70
2019-03-08T11:18:39.717Z,0.70
2019-03-08T11:20:06.890Z,0.60
2019-03-08T11:21:39.281Z,0.60
2019-03-08T11:22:53.151Z,0.50
2019-03-08T11:24:08.032Z,0.70
2019-03-08T11:25:21.480Z,0.60
2019-03-08T11:27:04.801Z,0.60
2019-03-08T11:28:20.944Z,0.72
2019-03-08T11:29:44.013Z,0.50
2019-03-08T11:31:05.932Z,0.45
2019-03-08T11:32:41.250Z,0.70
2019-03-08T11:34:02.997Z,0.80
2019-03-08T11:35:31.183Z,0.55
2019-03-08T11:36:48.615Z,0.50
2019-03-08T11:38:02.373Z,0.53
2019-03-08T11:39:37.071Z,0.50
2019-03-08T11:41:05.898Z,0.60
2019-03-08T11:42:30.118Z,0.65
2019-03-08T11:43:47.063Z,0.57
2019-03-08T11:45:05.076Z,0.65
2019-03-08T11:46:14.729Z,0.65
2019-03-08T11:47:36.997Z,0.60
2019-03-08T11:49:01.408Z,0.50
2019-03-08T11:50:42.709Z,0.60
2019-03-08T11:51:58.320Z,0.75
2019-03-08T11:53:29.810Z,0.50
2019-03-08T11:54:51.974Z,0.70
2019-03-08T11:56:13.813Z,0.50
2019-03-08T11:57:37.113Z,0.50
2019-03-08T11:58:58.403Z,0.65
2019-03-08T12:00:17.405Z,0.90
2019-03-08T12:01:39.576Z,0.70
2019-03-08T12:02:57.555Z,0.50
2019-03-08T12:04:17.765Z,0.70
2019-03-08T12:05:49.989Z,0.65
2019-03-08T12:07:12.023Z,0.50
2019-03-08T12:08:44.240Z,0.88
2019-03-08T12:10:02.312Z,0.50
2019-03-08T12:11:30.736Z,0.50
2019-03-08T12:12:50.471Z,0.70
2019-03-08T12:14:04.595Z,0.57
2019-03-08T12:15:28.779Z,0.50
2019-03-08T12:16:55.253Z,0.50
2019-03-08T12:18:30.715Z,0.82
2019-03-08T12:19:41.153Z,0.50
2019-03-08T12:21:03.216Z,0.57
2019-03-08T12:22:21.739Z,0.90
2019-03-08T12:23:45.389Z,0.40
2019-03-08T12:25:01.777Z,0.60
2019-03-08T12:26:15.207Z,0.65
2019-03-08T12:27:25.355Z,0.57
2019-03-08T12:28:54.611Z,0.50
2019-03-08T12:30:23.958Z,0.68
2019-03-08T12:31:53.380Z,0.60
2019-03-08T12:33:24.936Z,0.60
2019-03-08T12:34:39.745Z,0.80
2019-03-08T12:35:52.730Z,0.50
2019-03-08T12:37:18.919Z,0.60
2019-03-08T12:38:57.078Z,0.53
2019-03-08T12:40:29.665Z,0.60
2019-03-08T12:41:47.804Z,0.47
2019-03-08T12:43:07.620Z,0.85
2019-03-08T12:44:23.813Z,0.50
2019-03-08T12:45:50.555Z,0.50
2019-03-08T12:47:12.407Z,0.42
2019-03-08T12:48:38.401Z,0.40
2019-03-08T12:50:20.070Z,0.55
2019-03-08T12:51:31.877Z,0.55
2019-03-08T12:53:07.347Z,0.65
2019-03-08T12:54:29.515Z,0.50
2019-03-08T12:56:01.864Z,0.50
2019-03-08T12:57:34.768Z,0.72
2019-03-08T12:58:49.322Z,0.60
2019-03-08T13:00:31.403Z,0.60
2019-03-08T13:01:41.865Z,0.45
2019-03-08T13:03:17.116Z,0.72
2019-03-08T13:04:30.594Z,0.60
2019-03-08T13:05:59.623Z,0.70
2019-03-08T13:07:16.908Z,0.70
2019-03-08T13:08:28.839Z,0.50
2019-03-08T13:09:52.121Z,0.60
2019-03-08T13:10:56.300Z,0.50
2019-03-08T13:12:00.472Z,0.60
2019-03-08T13:13:04.777Z,0.60
2019-03-08T13:14:09.005Z,0.70
2019-03-08T13:15:14.689Z,0.80
2019-03-08T13:16:18.954Z,0.50
2019-03-08T13:17:23.245Z,0.70
2019-03-08T13:18:27.634Z,0.60
2019-03-08T13:19:31.912Z,0.70
2019-03-08T13:20:36.195Z,0.75
2019-03-08T13:21:40.673Z,0.50
2019-03-08T13:22:45.263Z,0.80
2019-03-08T13:23:49.539Z,0.60
2019-03-08T13:24:53.772Z,0.95
2019-03-08T13:25:58.173Z,0.57
2019-03-08T13:27:02.511Z,0.70
2019-03-08T13:28:06.867Z,0.90
2019-03-08T13:29:11.171Z,0.60
2019-03-08T13:30:20.317Z,0.40
2019-03-08T13:31:24.595Z,0.70
2019-03-08T13:32:28.918Z,0.50
2019-03-08T13:33:33.223Z,0.70
2019-03-08T13:34:37.475Z,0.60
2019-03-08T13:35:41.841Z,0.60
2019-03-08T13:36:46.016Z,0.75
2019-03-08T13:37:50.167Z,0.47
2019-03-08T13:38:54.532Z,0.60
2019-03-08T13:39:58.929Z,0.65
2019-03-08T13:41:03.929Z,0.60
2019-03-08T13:42:08.085Z,0.55
2019-03-08T13:43:12.421Z,0.70
2019-03-08T13:44:16.772Z,0.60
2019-03-08T13:45:21.075Z,0.60
2019-03-08T13:46:25.224Z,0.40
2019-03-08T13:47:29.446Z,0.88
2019-03-08T13:48:33.723Z,0.65
2019-03-08T13:49:38.085Z,0.70
2019-03-08T13:50:42.340Z,0.70
2019-03-08T13:51:46.707Z,0.50
2019-03-08T13:52:51.067Z,0.50
2019-03-08T13:53:55.286Z,0.72
2019-03-08T13:54:59.583Z,0.57
2019-03-08T13:56:03.824Z,0.75
2019-03-08T13:57:08.327Z,0.60
2019-03-08T13:58:12.896Z,0.55
2019-03-08T13:59:17.208Z,0.68
2019-03-08T14:00:21.569Z,0.50
2019-03-08T14:01:26.002Z,0.60
2019-03-08T14:02:30.296Z,0.80
2019-03-08T14:03:34.613Z,0.65
2019-03-08T14:04:39.170Z,0.80
2019-03-08T14:05:43.419Z,0.80
2019-03-08T14:06:47.779Z,0.50
2019-03-08T14:07:51.953Z,0.70
2019-03-08T14:08:56.101Z,0.70
2019-03-08T14:10:00.368Z,0.68
2019-03-08T14:11:04.749Z,0.50
2019-03-08T14:12:09.050Z,0.60
2019-03-08T14:13:13.407Z,0.62
2019-03-08T14:14:17.599Z,0.70
2019-03-08T14:15:22.195Z,0.60
2019-03-08T14:16:26.725Z,0.60
2019-03-08T14:17:30.952Z,0.50
2019-03-08T14:18:35.156Z,0.82
2019-03-08T14:19:39.312Z,1.07
2019-03-08T14:20:43.611Z,0.50
2019-03-08T14:21:47.894Z,0.90
2019-03-08T14:22:52.268Z,0.80
2019-03-08T14:23:56.621Z,0.50
2019-03-08T14:25:00.989Z,0.50
2019-03-08T14:26:05.839Z,0.60
2019-03-08T14:27:10.236Z,0.68
2019-03-08T14:28:15.324Z,0.68
2019-03-08T14:29:22.351Z,0.80
2019-03-08T14:30:26.936Z,0.80
2019-03-08T14:31:50.649Z,0.68
2019-03-08T14:32:58.002Z,0.65
2019-03-08T14:34:00.965Z,0.60
2019-03-08T14:35:05.655Z,0.50
2019-03-08T14:36:09.844Z,0.80
2019-03-08T14:37:16.141Z,0.78
2019-03-08T14:38:19.970Z,0.50
2019-03-08T14:39:24.293Z,0.50
2019-03-08T14:40:53.398Z,0.45
2019-03-08T14:42:15.642Z,0.60
2019-03-08T14:43:42.087Z,0.50
2019-03-08T14:45:11.451Z,0.47
2019-03-08T14:46:37.548Z,0.60
2019-03-08T14:47:44.826Z,0.50
2019-03-08T14:48:49.016Z,0.82
2019-03-08T14:49:55.363Z,0.60
2019-03-08T14:50:59.178Z,0.40
2019-03-08T14:52:03.492Z,0.60
2019-03-08T14:53:07.904Z,0.50
2019-03-08T14:54:12.395Z,0.78
2019-03-08T14:55:19.044Z,0.70
2019-03-08T14:56:23.282Z,0.70
2019-03-08T14:57:27.599Z,0.65
2019-03-08T14:58:32.562Z,0.70
2019-03-08T14:59:37.971Z,0.70
2019-03-08T15:00:42.230Z,0.60
2019-03-08T15:01:46.478Z,0.50
2019-03-08T15:02:50.842Z,0.70
2019-03-08T15:03:56.587Z,0.62
2019-03-08T15:05:10.684Z,0.50
2019-03-08T15:06:07.263Z,0.62
2019-03-08T15:07:11.391Z,0.82
2019-03-08T15:08:17.810Z,0.60
2019-03-08T15:09:23.060Z,0.70
2019-03-08T15:10:27.343Z,0.62
2019-03-08T15:11:31.534Z,0.80
2019-03-08T15:12:37.579Z,0.98
2019-03-08T15:13:41.661Z,0.90
2019-03-08T15:14:46.076Z,0.80
2019-03-08T15:15:50.240Z,1.52
2019-03-08T15:16:54.469Z,1.40
2019-03-08T15:17:59.151Z,0.80
2019-03-08T15:19:04.034Z,0.80
2019-03-08T15:20:15.136Z,0.70
2019-03-08T15:21:17.132Z,0.95
2019-03-08T15:22:21.455Z,0.55
2019-03-08T15:23:27.513Z,0.88
2019-03-08T15:24:38.228Z,0.78
2019-03-08T15:25:37.918Z,1.10
2019-03-08T15:26:42.069Z,1.15
2019-03-08T15:27:46.335Z,0.80
2019-03-08T15:28:50.589Z,0.75
2019-03-08T15:29:55.019Z,0.68
2019-03-08T15:30:59.351Z,0.60
2019-03-08T15:32:03.516Z,0.85
2019-03-08T15:33:07.756Z,0.70
2019-03-08T15:34:14.485Z,0.85
2019-03-08T15:35:17.948Z,0.60
2019-03-08T15:36:22.141Z,0.82
2019-03-08T15:37:26.419Z,0.60